createdAt,value
2018-04-22T00:00:38.895Z,0.00
2018-04-22T00:01:38.808Z,0.00
2018-04-22T00:02:38.819Z,0.00
2018-04-22T00:03:38.885Z,0.00
2018-04-22T00:04:38.855Z,0.00
2018-04-22T00:05:38.854Z,0.00
2018-04-22T00:06:38.874Z,0.00
2018-04-22T00:07:38.883Z,0.00
2018-04-22T00:08:38.919Z,0.00
2018-04-22T00:09:38.909Z,0.00
2018-04-22T00:10:38.925Z,0.00
2018-04-22T00:11:38.924Z,0.00
2018-04-22T00:12:38.935Z,0.00
2018-04-22T00:13:38.988Z,0.00
2018-04-22T00:14:39.000Z,0.00
2018-04-22T00:15:38.999Z,0.00
2018-04-22T00:16:39.000Z,0.00
2018-04-22T00:17:39.076Z,0.00
2018-04-22T00:18:39.018Z,0.00
2018-04-22T00:19:39.070Z,0.00
2018-04-22T00:20:39.047Z,0.00
2018-04-22T00:21:39.039Z,0.00
2018-04-22T00:22:39.082Z,0.00
2018-04-22T00:23:39.060Z,0.00
2018-04-22T00:24:39.145Z,0.00
2018-04-22T00:25:39.311Z,0.00
2018-04-22T00:26:39.160Z,0.00
2018-04-22T00:27:39.127Z,0.00
2018-04-22T00:28:39.136Z,0.00
2018-04-22T00:29:39.145Z,0.00
2018-04-22T00:30:39.211Z,0.00
2018-04-22T00:31:39.235Z,0.00
2018-04-22T00:32:39.182Z,0.00
2018-04-22T00:33:39.184Z,0.00
2018-04-22T00:34:39.206Z,0.00
2018-04-22T00:35:39.224Z,0.00
2018-04-22T00:36:39.263Z,0.00
2018-04-22T00:37:39.247Z,0.00
2018-04-22T00:38:39.278Z,0.00
2018-04-22T00:39:39.279Z,0.00
2018-04-22T00:40:39.275Z,0.00
2018-04-22T00:41:39.336Z,0.00
2018-04-22T00:42:39.296Z,0.00
2018-04-22T00:43:39.331Z,0.00
2018-04-22T00:44:39.333Z,0.00
2018-04-22T00:45:39.345Z,0.00
2018-04-22T00:46:39.424Z,0.00
2018-04-22T00:47:39.360Z,0.00
2018-04-22T00:48:39.380Z,0.00
2018-04-22T00:49:39.382Z,0.00
2018-04-22T00:50:39.395Z,0.00
2018-04-22T00:51:39.460Z,0.00
2018-04-22T00:52:39.423Z,0.00
2018-04-22T00:53:39.452Z,0.00
2018-04-22T00:54:39.507Z,0.00
2018-04-22T00:55:39.449Z,0.00
2018-04-22T00:56:39.467Z,0.00
2018-04-22T00:57:39.501Z,0.00
2018-04-22T00:58:39.514Z,0.00
2018-04-22T00:59:39.554Z,0.00
2018-04-22T01:00:39.508Z,0.00
2018-04-22T01:01:39.540Z,0.00
2018-04-22T01:02:39.561Z,0.00
2018-04-22T01:03:39.550Z,0.00
2018-04-22T01:04:39.604Z,0.00
2018-04-22T01:05:39.581Z,0.00
2018-04-22T01:06:39.594Z,0.00
2018-04-22T01:07:39.593Z,0.00
2018-04-22T01:08:39.616Z,0.00
2018-04-22T01:09:39.682Z,0.00
2018-04-22T01:10:39.696Z,0.00
2018-04-22T01:11:39.649Z,0.00
2018-04-22T01:12:39.660Z,0.00
2018-04-22T01:13:39.676Z,0.00
2018-04-22T01:14:39.700Z,0.00
2018-04-22T01:15:39.754Z,0.00
2018-04-22T01:16:39.700Z,0.00
2018-04-22T01:17:39.725Z,0.00
2018-04-22T01:18:39.753Z,0.00
2018-04-22T01:19:39.762Z,0.00
2018-04-22T01:20:39.786Z,0.00
2018-04-22T01:21:39.762Z,0.00
2018-04-22T01:22:39.845Z,0.00
2018-04-22T01:23:39.795Z,0.00
2018-04-22T01:24:39.795Z,0.00
2018-04-22T01:25:39.835Z,0.00
2018-04-22T01:26:39.870Z,0.00
2018-04-22T01:27:39.877Z,0.00
2018-04-22T01:28:39.845Z,0.00
2018-04-22T01:29:39.899Z,0.00
2018-04-22T01:30:39.881Z,0.00
2018-04-22T01:31:39.899Z,0.00
2018-04-22T01:32:39.931Z,0.00
2018-04-22T01:33:39.920Z,0.00
2018-04-22T01:34:39.920Z,0.00
2018-04-22T01:35:39.940Z,0.00
2018-04-22T01:36:39.959Z,0.00
2018-04-22T01:37:40.008Z,0.00
2018-04-22T01:38:40.038Z,0.00
2018-04-22T01:39:39.985Z,0.00
2018-04-22T01:40:40.001Z,0.00
2018-04-22T01:41:40.198Z,0.00
2018-04-22T01:42:40.016Z,0.00
2018-04-22T01:43:40.067Z,0.00
2018-04-22T01:44:40.101Z,0.00
2018-04-22T01:45:40.062Z,0.00
2018-04-22T01:46:40.052Z,0.00
2018-04-22T01:47:40.094Z,0.00
2018-04-22T01:48:40.123Z,0.00
2018-04-22T01:49:40.218Z,0.00
2018-04-22T01:50:40.118Z,0.00
2018-04-22T01:51:40.121Z,0.00
2018-04-22T01:52:40.187Z,0.00
2018-04-22T01:53:40.159Z,0.00
2018-04-22T01:54:40.169Z,0.00
2018-04-22T01:55:40.242Z,0.00
2018-04-22T01:56:40.173Z,0.00
2018-04-22T01:57:40.243Z,0.00
2018-04-22T01:58:40.197Z,0.00
2018-04-22T01:59:40.241Z,0.00
2018-04-22T02:00:40.231Z,0.00
2018-04-22T02:01:40.284Z,0.00
2018-04-22T02:02:40.274Z,0.00
2018-04-22T02:03:40.279Z,0.00
2018-04-22T02:04:40.263Z,0.00
2018-04-22T02:05:40.285Z,0.00
2018-04-22T02:06:40.309Z,0.00
2018-04-22T02:07:40.365Z,0.00
2018-04-22T02:08:40.318Z,0.00
2018-04-22T02:09:40.332Z,0.00
2018-04-22T02:10:40.359Z,0.00
2018-04-22T02:11:40.337Z,0.00
2018-04-22T02:12:40.404Z,0.00
2018-04-22T02:13:40.371Z,0.00
2018-04-22T02:14:40.389Z,0.00
2018-04-22T02:15:40.394Z,0.00
2018-04-22T02:16:40.399Z,0.00
2018-04-22T02:17:40.460Z,0.00
2018-04-22T02:18:40.446Z,0.00
2018-04-22T02:19:40.512Z,0.00
2018-04-22T02:20:40.459Z,0.00
2018-04-22T02:21:40.515Z,0.00
2018-04-22T02:22:40.522Z,0.00
2018-04-22T02:23:40.483Z,0.00
2018-04-22T02:24:40.501Z,0.00
2018-04-22T02:25:40.514Z,0.00
2018-04-22T02:26:40.518Z,0.00
2018-04-22T02:27:40.576Z,0.00
2018-04-22T02:28:40.579Z,0.00
2018-04-22T02:29:40.566Z,0.00
2018-04-22T02:30:40.574Z,0.00
2018-04-22T02:31:40.579Z,0.00
2018-04-22T02:32:40.641Z,0.00
2018-04-22T02:33:40.622Z,0.00
2018-04-22T02:34:40.659Z,0.00
2018-04-22T02:35:40.640Z,0.00
2018-04-22T02:36:40.688Z,0.00
2018-04-22T02:37:40.637Z,0.00
2018-04-22T02:38:40.661Z,0.00
2018-04-22T02:39:40.688Z,0.00
2018-04-22T02:40:40.678Z,0.00
2018-04-22T02:41:40.706Z,0.00
2018-04-22T02:42:40.750Z,0.00
2018-04-22T02:43:40.778Z,0.00
2018-04-22T02:44:40.739Z,0.00
2018-04-22T02:45:40.737Z,0.00
2018-04-22T02:46:40.747Z,0.00
2018-04-22T02:47:40.765Z,0.00
2018-04-22T02:48:40.816Z,0.00
2018-04-22T02:49:40.776Z,0.00
2018-04-22T02:50:40.806Z,0.00
2018-04-22T02:51:40.797Z,0.00
2018-04-22T02:52:40.835Z,0.00
2018-04-22T02:53:40.864Z,0.00
2018-04-22T02:54:40.830Z,0.00
2018-04-22T02:55:40.854Z,0.00
2018-04-22T02:56:40.863Z,0.00
2018-04-22T02:57:40.872Z,0.00
2018-04-22T02:58:40.920Z,0.00
2018-04-22T02:59:40.927Z,0.00
2018-04-22T03:00:40.910Z,0.00
2018-04-22T03:01:40.916Z,0.00
2018-04-22T03:02:40.923Z,0.00
2018-04-22T03:03:40.939Z,0.00
2018-04-22T03:04:41.003Z,0.00
2018-04-22T03:05:40.969Z,0.00
2018-04-22T03:06:40.977Z,0.00
2018-04-22T03:07:40.975Z,0.00
2018-04-22T03:08:40.995Z,0.00
2018-04-22T03:09:41.072Z,0.00
2018-04-22T03:10:41.007Z,0.00
2018-04-22T03:11:41.018Z,0.00
2018-04-22T03:12:41.039Z,0.00
2018-04-22T03:13:41.050Z,0.00
2018-04-22T03:14:41.096Z,0.00
2018-04-22T03:15:41.101Z,0.00
2018-04-22T03:16:41.080Z,0.00
2018-04-22T03:17:41.093Z,0.00
2018-04-22T03:18:41.109Z,0.00
2018-04-22T03:19:41.210Z,4.00
2018-04-22T03:20:41.131Z,0.00
2018-04-22T03:21:41.132Z,0.00
2018-04-22T03:22:41.140Z,4.00
2018-04-22T03:23:41.171Z,0.00
2018-04-22T03:24:41.244Z,4.00
2018-04-22T03:25:41.174Z,4.00
2018-04-22T03:26:41.195Z,4.00
2018-04-22T03:27:41.211Z,4.00
2018-04-22T03:28:41.213Z,8.00
2018-04-22T03:29:41.265Z,8.00
2018-04-22T03:30:41.329Z,8.00
2018-04-22T03:31:41.265Z,8.00
2018-04-22T03:32:41.251Z,12.00
2018-04-22T03:33:41.277Z,8.00
2018-04-22T03:34:41.323Z,12.00
2018-04-22T03:35:41.299Z,12.00
2018-04-22T03:36:41.318Z,20.00
2018-04-22T03:37:41.322Z,20.00
2018-04-22T03:38:41.335Z,20.00
2018-04-22T03:39:41.354Z,24.00
2018-04-22T03:40:41.403Z,28.00
2018-04-22T03:41:41.401Z,32.00
2018-04-22T03:42:41.409Z,36.00
2018-04-22T03:43:41.373Z,40.00
2018-04-22T03:44:41.393Z,44.00
2018-04-22T03:45:41.398Z,52.00
2018-04-22T03:46:41.449Z,60.00
2018-04-22T03:47:41.458Z,64.00
2018-04-22T03:48:41.479Z,72.00
2018-04-22T03:49:41.466Z,80.00
2018-04-22T03:50:41.454Z,88.00
2018-04-22T03:51:41.471Z,96.00
2018-04-22T03:52:41.539Z,108.00
2018-04-22T03:53:41.573Z,112.00
2018-04-22T03:54:41.507Z,124.00
2018-04-22T03:55:41.547Z,136.00
2018-04-22T03:56:41.546Z,144.00
2018-04-22T03:57:41.539Z,156.00
2018-04-22T03:58:41.584Z,168.00
2018-04-22T03:59:41.576Z,184.00
2018-04-22T04:00:41.593Z,200.00
2018-04-22T04:01:41.627Z,216.00
2018-04-22T04:02:41.604Z,232.00
2018-04-22T04:03:41.619Z,248.00
2018-04-22T04:04:41.647Z,264.00
2018-04-22T04:05:41.625Z,280.00
2018-04-22T04:06:41.712Z,296.00
2018-04-22T04:07:41.650Z,316.00
2018-04-22T04:08:41.658Z,332.00
2018-04-22T04:09:41.677Z,356.00
2018-04-22T04:10:41.686Z,372.00
2018-04-22T04:11:41.736Z,396.00
2018-04-22T04:12:41.751Z,416.00
2018-04-22T04:13:41.717Z,440.00
2018-04-22T04:14:41.738Z,460.00
2018-04-22T04:15:41.733Z,488.00
2018-04-22T04:16:41.808Z,516.00
2018-04-22T04:17:41.967Z,544.00
2018-04-22T04:18:41.807Z,576.00
2018-04-22T04:19:41.783Z,616.00
2018-04-22T04:20:41.798Z,664.00
2018-04-22T04:21:41.796Z,728.00
2018-04-22T04:22:41.860Z,796.00
2018-04-22T04:23:41.855Z,856.00
2018-04-22T04:24:41.859Z,964.00
2018-04-22T04:25:41.841Z,1104.00
2018-04-22T04:26:41.860Z,1180.00
2018-04-22T04:27:42.290Z,1276.00
2018-04-22T04:28:41.894Z,1384.00
2018-04-22T04:29:41.901Z,1468.00
2018-04-22T04:30:42.064Z,1552.00
2018-04-22T04:31:41.918Z,1676.00
2018-04-22T04:32:41.925Z,1768.00
2018-04-22T04:33:41.970Z,1728.00
2018-04-22T04:34:41.970Z,1824.00
2018-04-22T04:35:41.976Z,2084.00
2018-04-22T04:36:41.988Z,2200.00
2018-04-22T04:37:42.015Z,2252.00
2018-04-22T04:38:42.044Z,2380.00
2018-04-22T04:39:42.009Z,2420.00
2018-04-22T04:40:42.022Z,2448.00
2018-04-22T04:41:42.038Z,2780.00
2018-04-22T04:42:42.051Z,3128.00
2018-04-22T04:43:42.088Z,3480.00
2018-04-22T04:44:42.067Z,3732.00
2018-04-22T04:45:42.068Z,3632.00
2018-04-22T04:46:42.120Z,3688.00
2018-04-22T04:47:42.113Z,4544.00
2018-04-22T04:48:42.138Z,4708.00
2018-04-22T04:49:42.170Z,4856.00
2018-04-22T04:50:42.138Z,4976.00
2018-04-22T04:51:42.186Z,4608.00
2018-04-22T04:52:42.173Z,5108.00
2018-04-22T04:53:42.168Z,5640.00
2018-04-22T04:54:42.233Z,6088.00
2018-04-22T04:55:42.196Z,6552.00
2018-04-22T04:56:42.218Z,6808.00
2018-04-22T04:57:42.251Z,6320.00
2018-04-22T04:58:42.220Z,6152.00
2018-04-22T04:59:42.246Z,6688.00
2018-04-22T05:00:42.245Z,7416.00
2018-04-22T05:01:42.305Z,7356.00
2018-04-22T05:02:42.374Z,7268.00
2018-04-22T05:03:42.274Z,6708.00
2018-04-22T05:04:42.303Z,6872.00
2018-04-22T05:05:42.309Z,7216.00
2018-04-22T05:06:42.339Z,7536.00
2018-04-22T05:07:42.362Z,7364.00
2018-04-22T05:08:42.378Z,7260.00
2018-04-22T05:09:42.417Z,7344.00
2018-04-22T05:10:42.392Z,7372.00
2018-04-22T05:11:42.401Z,7588.00
2018-04-22T05:12:42.396Z,8260.00
2018-04-22T05:13:42.454Z,8524.00
2018-04-22T05:14:42.761Z,8756.00
2018-04-22T05:15:42.452Z,8716.00
2018-04-22T05:16:42.463Z,8324.00
2018-04-22T05:17:42.473Z,8400.00
2018-04-22T05:18:42.494Z,8080.00
2018-04-22T05:19:42.486Z,7588.00
2018-04-22T05:20:42.559Z,7560.00
2018-04-22T05:21:42.505Z,7644.00
2018-04-22T05:22:42.564Z,7488.00
2018-04-22T05:23:42.565Z,7448.00
2018-04-22T05:24:42.567Z,8216.00
2018-04-22T05:25:42.621Z,8916.00
2018-04-22T05:26:42.585Z,8336.00
2018-04-22T05:27:42.638Z,7460.00
2018-04-22T05:28:42.625Z,7280.00
2018-04-22T05:29:42.647Z,6600.00
2018-04-22T05:30:42.796Z,7488.00
2018-04-22T05:31:42.714Z,7332.00
2018-04-22T05:32:42.728Z,8128.00
2018-04-22T05:33:42.690Z,8128.00
2018-04-22T05:34:42.701Z,8040.00
2018-04-22T05:35:42.714Z,8344.00
2018-04-22T05:36:42.765Z,8660.00
2018-04-22T05:37:42.778Z,8408.00
2018-04-22T05:38:42.772Z,7908.00
2018-04-22T05:39:42.790Z,7604.00
2018-04-22T05:40:42.816Z,7344.00
2018-04-22T05:41:42.838Z,6916.00
2018-04-22T05:42:42.880Z,5904.00
2018-04-22T05:43:42.825Z,4552.00
2018-04-22T05:44:42.848Z,3692.00
2018-04-22T05:45:42.873Z,3348.00
2018-04-22T05:46:42.872Z,3008.00
2018-04-22T05:47:42.944Z,2720.00
2018-04-22T05:48:42.905Z,2552.00
2018-04-22T05:49:43.042Z,2452.00
2018-04-22T05:50:42.950Z,2404.00
2018-04-22T05:51:42.971Z,2380.00
2018-04-22T05:52:43.046Z,2376.00
2018-04-22T05:53:42.973Z,2344.00
2018-04-22T05:54:43.028Z,2312.00
2018-04-22T05:55:43.031Z,2288.00
2018-04-22T05:56:43.085Z,2296.00
2018-04-22T05:57:43.057Z,2292.00
2018-04-22T05:58:43.081Z,2252.00
2018-04-22T05:59:43.116Z,2140.00
2018-04-22T06:00:43.074Z,2260.00
2018-04-22T06:01:43.100Z,2528.00
2018-04-22T06:02:43.092Z,2868.00
2018-04-22T06:03:43.125Z,3064.00
2018-04-22T06:04:43.198Z,3064.00
2018-04-22T06:05:43.158Z,2932.00
2018-04-22T06:06:43.171Z,2560.00
2018-04-22T06:07:43.175Z,2328.00
2018-04-22T06:08:43.181Z,2196.00
2018-04-22T06:09:43.244Z,2140.00
2018-04-22T06:10:43.233Z,2128.00
2018-04-22T06:11:43.213Z,2104.00
2018-04-22T06:12:43.254Z,2104.00
2018-04-22T06:13:43.356Z,2168.00
2018-04-22T06:14:43.299Z,2344.00
2018-04-22T06:15:43.301Z,2612.00
2018-04-22T06:16:43.307Z,2916.00
2018-04-22T06:17:43.294Z,3060.00
2018-04-22T06:18:43.308Z,2776.00
2018-04-22T06:19:43.362Z,2564.00
2018-04-22T06:20:43.375Z,2684.00
2018-04-22T06:21:43.388Z,3204.00
2018-04-22T06:22:43.382Z,4088.00
2018-04-22T06:23:43.391Z,5296.00
2018-04-22T06:24:43.435Z,5904.00
2018-04-22T06:25:43.413Z,5420.00
2018-04-22T06:26:43.412Z,4396.00
2018-04-22T06:27:43.438Z,3596.00
2018-04-22T06:28:43.464Z,3036.00
2018-04-22T06:29:43.489Z,2576.00
2018-04-22T06:30:43.524Z,2240.00
2018-04-22T06:31:43.497Z,2084.00
2018-04-22T06:32:43.505Z,2032.00
2018-04-22T06:33:43.511Z,2024.00
2018-04-22T06:34:43.520Z,2028.00
2018-04-22T06:35:43.592Z,2036.00
2018-04-22T06:36:43.641Z,2044.00
2018-04-22T06:37:43.571Z,2044.00
2018-04-22T06:38:43.605Z,2040.00
2018-04-22T06:39:43.595Z,2032.00
2018-04-22T06:40:43.690Z,2020.00
2018-04-22T06:41:43.622Z,2016.00
2018-04-22T06:42:43.656Z,2008.00
2018-04-22T06:43:43.677Z,1996.00
2018-04-22T06:44:43.677Z,1988.00
2018-04-22T06:45:43.729Z,1984.00
2018-04-22T06:46:43.695Z,1980.00
2018-04-22T06:47:43.715Z,1972.00
2018-04-22T06:48:43.773Z,1972.00
2018-04-22T06:49:43.726Z,1960.00
2018-04-22T06:50:43.784Z,1944.00
2018-04-22T06:51:43.854Z,1936.00
2018-04-22T06:52:43.772Z,1932.00
2018-04-22T06:53:43.803Z,1932.00
2018-04-22T06:54:44.090Z,1940.00
2018-04-22T06:55:43.811Z,1936.00
2018-04-22T06:56:43.881Z,1924.00
2018-04-22T06:57:43.829Z,1904.00
2018-04-22T06:58:43.915Z,1884.00
2018-04-22T06:59:43.857Z,1872.00
2018-04-22T07:00:43.881Z,1864.00
2018-04-22T07:01:43.934Z,1856.00
2018-04-22T07:02:43.902Z,1844.00
2018-04-22T07:03:43.921Z,1832.00
2018-04-22T07:04:43.968Z,1824.00
2018-04-22T07:05:43.948Z,1792.00
2018-04-22T07:06:44.002Z,1816.00
2018-04-22T07:07:43.978Z,1808.00
2018-04-22T07:08:43.995Z,1804.00
2018-04-22T07:09:44.006Z,1792.00
2018-04-22T07:10:44.023Z,1776.00
2018-04-22T07:11:44.075Z,1772.00
2018-04-22T07:12:44.043Z,1768.00
2018-04-22T07:13:44.055Z,1764.00
2018-04-22T07:14:44.067Z,1756.00
2018-04-22T07:15:44.120Z,1756.00
2018-04-22T07:16:44.169Z,1744.00
2018-04-22T07:17:44.186Z,1732.00
2018-04-22T07:18:44.133Z,1712.00
2018-04-22T07:19:44.142Z,1700.00
2018-04-22T07:20:44.154Z,1692.00
2018-04-22T07:21:44.209Z,1692.00
2018-04-22T07:22:44.315Z,1688.00
2018-04-22T07:23:44.231Z,1688.00
2018-04-22T07:24:44.195Z,1688.00
2018-04-22T07:25:44.232Z,1688.00
2018-04-22T07:26:44.249Z,1692.00
2018-04-22T07:27:44.244Z,1692.00
2018-04-22T07:28:44.294Z,1692.00
2018-04-22T07:29:44.267Z,1688.00
2018-04-22T07:30:44.279Z,1680.00
2018-04-22T07:31:44.313Z,1676.00
2018-04-22T07:32:44.379Z,1672.00
2018-04-22T07:33:44.364Z,1664.00
2018-04-22T07:34:44.334Z,1656.00
2018-04-22T07:35:44.346Z,1648.00
2018-04-22T07:36:44.364Z,1640.00
2018-04-22T07:37:44.377Z,1632.00
2018-04-22T07:38:44.408Z,1628.00
2018-04-22T07:39:44.406Z,1616.00
2018-04-22T07:40:44.466Z,1612.00
2018-04-22T07:41:44.411Z,1608.00
2018-04-22T07:42:44.447Z,1604.00
2018-04-22T07:43:44.445Z,1600.00
2018-04-22T07:44:44.481Z,1592.00
2018-04-22T07:45:44.618Z,1596.00
2018-04-22T07:46:44.495Z,1592.00
2018-04-22T07:47:44.702Z,1568.00
2018-04-22T07:48:44.523Z,1560.00
2018-04-22T07:49:44.615Z,1560.00
2018-04-22T07:50:44.629Z,1564.00
2018-04-22T07:51:44.617Z,1556.00
2018-04-22T07:52:44.575Z,1560.00
2018-04-22T07:53:44.633Z,1564.00
2018-04-22T07:54:44.605Z,1568.00
2018-04-22T07:55:44.636Z,1568.00
2018-04-22T07:56:44.686Z,1564.00
2018-04-22T07:57:44.637Z,1564.00
2018-04-22T07:58:44.657Z,1564.00
2018-04-22T07:59:44.666Z,1564.00
2018-04-22T08:00:44.680Z,1560.00
2018-04-22T08:01:44.749Z,1556.00
2018-04-22T08:02:44.688Z,1556.00
2018-04-22T08:03:44.724Z,1552.00
2018-04-22T08:04:44.719Z,1548.00
2018-04-22T08:05:44.738Z,1544.00
2018-04-22T08:06:44.825Z,1540.00
2018-04-22T08:07:44.774Z,1544.00
2018-04-22T08:08:44.805Z,1540.00
2018-04-22T08:09:44.815Z,1536.00
2018-04-22T08:10:44.798Z,1532.00
2018-04-22T08:11:44.859Z,1532.00
2018-04-22T08:12:44.830Z,1532.00
2018-04-22T08:13:44.839Z,1528.00
2018-04-22T08:14:44.868Z,1528.00
2018-04-22T08:15:44.885Z,1520.00
2018-04-22T08:16:44.920Z,1524.00
2018-04-22T08:17:44.922Z,1516.00
2018-04-22T08:18:44.906Z,1516.00
2018-04-22T08:19:44.991Z,1512.00
2018-04-22T08:20:44.956Z,1504.00
2018-04-22T08:21:44.949Z,1504.00
2018-04-22T08:22:44.979Z,1496.00
2018-04-22T08:23:45.007Z,1496.00
2018-04-22T08:24:45.041Z,1492.00
2018-04-22T08:25:44.997Z,1492.00
2018-04-22T08:26:45.069Z,1484.00
2018-04-22T08:27:45.041Z,1484.00
2018-04-22T08:28:45.071Z,1484.00
2018-04-22T08:29:45.167Z,1476.00
2018-04-22T08:30:45.079Z,1476.00
2018-04-22T08:31:45.123Z,1472.00
2018-04-22T08:32:45.131Z,1468.00
2018-04-22T08:33:45.117Z,1464.00
2018-04-22T08:34:45.164Z,1460.00
2018-04-22T08:35:45.163Z,1460.00
2018-04-22T08:36:45.251Z,1456.00
2018-04-22T08:37:45.171Z,1456.00
2018-04-22T08:38:45.173Z,1456.00
2018-04-22T08:39:45.240Z,1452.00
2018-04-22T08:40:45.231Z,1452.00
2018-04-22T08:41:45.253Z,1452.00
2018-04-22T08:42:45.238Z,1452.00
2018-04-22T08:43:45.312Z,1452.00
2018-04-22T08:44:45.319Z,1448.00
2018-04-22T08:45:45.284Z,1448.00
2018-04-22T08:46:45.291Z,1444.00
2018-04-22T08:47:45.316Z,1448.00
2018-04-22T08:48:45.352Z,1440.00
2018-04-22T08:49:45.340Z,1444.00
2018-04-22T08:50:45.447Z,1436.00
2018-04-22T08:51:45.378Z,1436.00
2018-04-22T08:52:45.373Z,1440.00
2018-04-22T08:53:45.449Z,1436.00
2018-04-22T08:54:45.399Z,1436.00
2018-04-22T08:55:45.407Z,1440.00
2018-04-22T08:56:45.479Z,1444.00
2018-04-22T08:57:45.482Z,1444.00
2018-04-22T08:58:45.489Z,1440.00
2018-04-22T08:59:45.460Z,1436.00
2018-04-22T09:00:45.490Z,1436.00
2018-04-22T09:01:45.535Z,1432.00
2018-04-22T09:02:45.508Z,1432.00
2018-04-22T09:03:45.551Z,1432.00
2018-04-22T09:04:45.559Z,1432.00
2018-04-22T09:05:45.564Z,1432.00
2018-04-22T09:06:45.602Z,1432.00
2018-04-22T09:07:45.577Z,1432.00
2018-04-22T09:08:45.598Z,1416.00
2018-04-22T09:09:45.602Z,1412.00
2018-04-22T09:10:45.616Z,1368.00
2018-04-22T09:11:45.679Z,1360.00
2018-04-22T09:12:45.668Z,1364.00
2018-04-22T09:13:45.663Z,1368.00
2018-04-22T09:14:45.677Z,1380.00
2018-04-22T09:15:45.694Z,1384.00
2018-04-22T09:16:45.729Z,1388.00
2018-04-22T09:17:45.708Z,1400.00
2018-04-22T09:18:45.766Z,1408.00
2018-04-22T09:19:45.742Z,1420.00
2018-04-22T09:20:45.761Z,1420.00
2018-04-22T09:21:45.760Z,1420.00
2018-04-22T09:22:45.767Z,1420.00
2018-04-22T09:23:45.904Z,1416.00
2018-04-22T09:24:45.892Z,1420.00
2018-04-22T09:25:45.849Z,1420.00
2018-04-22T09:26:45.943Z,1424.00
2018-04-22T09:27:45.952Z,1420.00
2018-04-22T09:28:45.883Z,1416.00
2018-04-22T09:29:45.903Z,1416.00
2018-04-22T09:30:45.988Z,1412.00
2018-04-22T09:31:45.906Z,1400.00
2018-04-22T09:32:45.970Z,1388.00
2018-04-22T09:33:45.968Z,1400.00
2018-04-22T09:34:45.945Z,1396.00
2018-04-22T09:35:45.978Z,1396.00
2018-04-22T09:36:45.984Z,1400.00
2018-04-22T09:37:46.007Z,1412.00
2018-04-22T09:38:46.023Z,1424.00
2018-04-22T09:39:46.004Z,1432.00
2018-04-22T09:40:46.096Z,1444.00
2018-04-22T09:41:46.069Z,1448.00
2018-04-22T09:42:46.205Z,1456.00
2018-04-22T09:43:46.081Z,1468.00
2018-04-22T09:44:46.080Z,1472.00
2018-04-22T09:45:46.092Z,1472.00
2018-04-22T09:46:46.115Z,1476.00
2018-04-22T09:47:46.161Z,1476.00
2018-04-22T09:48:46.157Z,1456.00
2018-04-22T09:49:46.158Z,1412.00
2018-04-22T09:50:46.328Z,1408.00
2018-04-22T09:51:46.174Z,1480.00
2018-04-22T09:52:46.186Z,1512.00
2018-04-22T09:53:46.201Z,1528.00
2018-04-22T09:54:46.223Z,1544.00
2018-04-22T09:55:46.251Z,1556.00
2018-04-22T09:56:46.284Z,1564.00
2018-04-22T09:57:46.288Z,1564.00
2018-04-22T09:58:46.281Z,1560.00
2018-04-22T09:59:46.303Z,1544.00
2018-04-22T10:00:46.302Z,1548.00
2018-04-22T10:01:46.353Z,1540.00
2018-04-22T10:02:46.325Z,1564.00
2018-04-22T10:03:46.358Z,1572.00
2018-04-22T10:04:46.388Z,1576.00
2018-04-22T10:05:46.438Z,1572.00
2018-04-22T10:06:46.384Z,1564.00
2018-04-22T10:07:46.434Z,1564.00
2018-04-22T10:08:46.411Z,1560.00
2018-04-22T10:09:46.439Z,1540.00
2018-04-22T10:10:46.467Z,1540.00
2018-04-22T10:11:46.527Z,1532.00
2018-04-22T10:12:46.525Z,1536.00
2018-04-22T10:13:46.480Z,1564.00
2018-04-22T10:14:46.678Z,1584.00
2018-04-22T10:15:46.537Z,1600.00
2018-04-22T10:16:46.527Z,1592.00
2018-04-22T10:17:46.541Z,1576.00
2018-04-22T10:18:46.649Z,1564.00
2018-04-22T10:19:46.622Z,1544.00
2018-04-22T10:20:46.635Z,1532.00
2018-04-22T10:21:46.601Z,1540.00
2018-04-22T10:22:46.627Z,1540.00
2018-04-22T10:23:46.635Z,1540.00
2018-04-22T10:24:46.695Z,1516.00
2018-04-22T10:25:46.681Z,1520.00
2018-04-22T10:26:46.670Z,1504.00
2018-04-22T10:27:46.770Z,1516.00
2018-04-22T10:28:46.703Z,1524.00
2018-04-22T10:29:46.702Z,1536.00
2018-04-22T10:30:46.715Z,1544.00
2018-04-22T10:31:46.750Z,1556.00
2018-04-22T10:32:46.799Z,1560.00
2018-04-22T10:33:46.756Z,1544.00
2018-04-22T10:34:46.817Z,1552.00
2018-04-22T10:35:46.800Z,1564.00
2018-04-22T10:36:46.801Z,1568.00
2018-04-22T10:37:46.859Z,1580.00
2018-04-22T10:38:46.924Z,1588.00
2018-04-22T10:39:46.865Z,1588.00
2018-04-22T10:40:46.867Z,1588.00
2018-04-22T10:41:46.926Z,1588.00
2018-04-22T10:42:46.914Z,1596.00
2018-04-22T10:43:46.905Z,1596.00
2018-04-22T10:44:46.926Z,1596.00
2018-04-22T10:45:46.936Z,1592.00
2018-04-22T10:46:46.995Z,1592.00
2018-04-22T10:47:47.008Z,1592.00
2018-04-22T10:48:46.987Z,1600.00
2018-04-22T10:49:47.012Z,1584.00
2018-04-22T10:50:47.010Z,1608.00
2018-04-22T10:51:47.047Z,1612.00
2018-04-22T10:52:47.064Z,1612.00
2018-04-22T10:53:47.071Z,1612.00
2018-04-22T10:54:47.091Z,1616.00
2018-04-22T10:55:47.082Z,1620.00
2018-04-22T10:56:47.089Z,1624.00
2018-04-22T10:57:47.101Z,1632.00
2018-04-22T10:58:47.125Z,1640.00
2018-04-22T10:59:47.199Z,1648.00
2018-04-22T11:00:47.163Z,1652.00
2018-04-22T11:01:47.213Z,1660.00
2018-04-22T11:02:47.192Z,1656.00
2018-04-22T11:03:47.223Z,1644.00
2018-04-22T11:04:47.245Z,1632.00
2018-04-22T11:05:47.216Z,1632.00
2018-04-22T11:06:47.232Z,1628.00
2018-04-22T11:07:47.267Z,1616.00
2018-04-22T11:08:47.288Z,1612.00
2018-04-22T11:09:47.323Z,1592.00
2018-04-22T11:10:47.326Z,1584.00
2018-04-22T11:11:47.325Z,1568.00
2018-04-22T11:12:47.319Z,1568.00
2018-04-22T11:13:47.338Z,1576.00
2018-04-22T11:14:47.523Z,1560.00
2018-04-22T11:15:47.380Z,1520.00
2018-04-22T11:16:47.391Z,1572.00
2018-04-22T11:17:47.475Z,1568.00
2018-04-22T11:18:47.443Z,1564.00
2018-04-22T11:19:47.442Z,1564.00
2018-04-22T11:20:47.436Z,1564.00
2018-04-22T11:21:47.462Z,1572.00
2018-04-22T11:22:47.517Z,1588.00
2018-04-22T11:23:47.479Z,1592.00
2018-04-22T11:24:47.519Z,1596.00
2018-04-22T11:25:47.523Z,1604.00
2018-04-22T11:26:47.538Z,1612.00
2018-04-22T11:27:47.591Z,1620.00
2018-04-22T11:28:47.571Z,1640.00
2018-04-22T11:29:47.565Z,1648.00
2018-04-22T11:30:47.601Z,1640.00
2018-04-22T11:31:47.619Z,1676.00
2018-04-22T11:32:47.655Z,1688.00
2018-04-22T11:33:47.645Z,1696.00
2018-04-22T11:34:47.853Z,1704.00
2018-04-22T11:35:47.668Z,1704.00
2018-04-22T11:36:47.677Z,1704.00
2018-04-22T11:37:47.731Z,1688.00
2018-04-22T11:38:47.707Z,1676.00
2018-04-22T11:39:47.753Z,1660.00
2018-04-22T11:40:47.741Z,1656.00
2018-04-22T11:41:47.776Z,1672.00
2018-04-22T11:42:47.923Z,1660.00
2018-04-22T11:43:47.784Z,1664.00
2018-04-22T11:44:47.832Z,1656.00
2018-04-22T11:45:47.810Z,1624.00
2018-04-22T11:46:47.857Z,1640.00
2018-04-22T11:47:47.892Z,1640.00
2018-04-22T11:48:47.928Z,1640.00
2018-04-22T11:49:47.908Z,1636.00
2018-04-22T11:50:47.891Z,1636.00
2018-04-22T11:51:47.929Z,1640.00
2018-04-22T11:52:47.918Z,1624.00
2018-04-22T11:53:47.931Z,1624.00
2018-04-22T11:54:47.946Z,1624.00
2018-04-22T11:55:48.022Z,1620.00
2018-04-22T11:56:47.979Z,1612.00
2018-04-22T11:57:47.988Z,1592.00
2018-04-22T11:58:48.003Z,1580.00
2018-04-22T11:59:48.086Z,1568.00
2018-04-22T12:00:48.089Z,1560.00
2018-04-22T12:01:48.086Z,1556.00
2018-04-22T12:02:48.101Z,1544.00
2018-04-22T12:03:48.108Z,1536.00
2018-04-22T12:04:48.082Z,1532.00
2018-04-22T12:05:48.127Z,1528.00
2018-04-22T12:06:48.115Z,1528.00
2018-04-22T12:07:48.178Z,1528.00
2018-04-22T12:08:48.160Z,1524.00
2018-04-22T12:09:48.159Z,1520.00
2018-04-22T12:10:48.173Z,1504.00
2018-04-22T12:11:48.208Z,1488.00
2018-04-22T12:12:48.276Z,1508.00
2018-04-22T12:13:48.228Z,1536.00
2018-04-22T12:14:48.274Z,1540.00
2018-04-22T12:15:48.260Z,1524.00
2018-04-22T12:16:48.277Z,1524.00
2018-04-22T12:17:48.300Z,1532.00
2018-04-22T12:18:48.343Z,1536.00
2018-04-22T12:19:48.321Z,1524.00
2018-04-22T12:20:48.335Z,1536.00
2018-04-22T12:21:48.527Z,1536.00
2018-04-22T12:22:48.708Z,1564.00
2018-04-22T12:23:48.414Z,1612.00
2018-04-22T12:24:48.513Z,1608.00
2018-04-22T12:25:48.399Z,1620.00
2018-04-22T12:26:48.420Z,1600.00
2018-04-22T12:27:48.433Z,1656.00